Main page
METAR-TAF:

METAR-TAF

Airports :

Valence-Chabeuil Airport

Valence, France

latitude: 44-54-58N, longitude: 4-58-06E, elevation: 160 m

Current weather observation

The report was made 20 hours and 2 minutes ago, at 18:00 UTC
Wind 10 kt from the North
Temperature 29°C
Humidity 40%
Pressure 1016 hPa
Visibility 10 km or more
no clouds below 1500 m and no cumulonimbus

METAR: LFLU 201800Z AUTO 01010KT CAVOK 29/14 Q1016

Time: 16:02 (14:02 UTC)


TAF: missing

Weather observations and forecasts of more than 4000 airports (METAR and TAF reports).

The available stations are represented by yellow and red dots on the map.

Hover mouse over dot to see the name of the station.

Then click to see weather observations and forecasts.

To change the map : click on the green buttons with a black cross to zoom in, on the green button with a dash to zoom out, or on the green arrows for adjacent maps.


METAR-TAF: